createdAt,value
2022-11-13T00:02:36.685Z,6.29
2022-11-13T00:05:23.801Z,6.42
2022-11-13T00:08:10.532Z,6.47
2022-11-13T00:11:01.109Z,5.89
2022-11-13T00:13:48.881Z,6.35
2022-11-13T00:16:37.146Z,6.24
2022-11-13T00:19:23.894Z,6.05
2022-11-13T00:22:10.674Z,5.80
2022-11-13T00:24:57.424Z,5.30
2022-11-13T00:27:44.272Z,5.34
2022-11-13T00:30:30.855Z,4.99
2022-11-13T00:33:38.294Z,5.37
2022-11-13T00:36:26.874Z,5.02
2022-11-13T00:39:13.746Z,4.66
2022-11-13T00:42:00.530Z,5.20
2022-11-13T00:44:47.365Z,4.65
2022-11-13T00:47:34.062Z,4.63
2022-11-13T00:50:22.153Z,4.75
2022-11-13T00:53:09.421Z,5.08
2022-11-13T00:56:00.391Z,5.41
2022-11-13T00:58:47.143Z,5.35
2022-11-13T01:01:33.897Z,5.48
2022-11-13T01:04:20.536Z,5.10
2022-11-13T01:07:08.887Z,5.06
2022-11-13T01:09:55.485Z,5.65
2022-11-13T01:12:42.041Z,4.70
2022-11-13T01:15:28.930Z,4.82
2022-11-13T01:18:15.774Z,5.42
2022-11-13T01:21:06.695Z,5.71
2022-11-13T01:23:54.857Z,5.12
2022-11-13T01:26:41.545Z,4.96
2022-11-13T01:29:28.491Z,4.86
2022-11-13T01:32:15.078Z,4.74
2022-11-13T01:35:01.851Z,4.42
2022-11-13T01:37:48.688Z,4.94
2022-11-13T01:40:36.602Z,5.39
2022-11-13T01:43:27.574Z,5.22
2022-11-13T01:46:17.142Z,4.77
2022-11-13T01:49:11.747Z,5.63
2022-11-13T01:51:59.412Z,5.51
2022-11-13T01:54:48.126Z,5.49
2022-11-13T01:57:36.626Z,5.86
2022-11-13T02:00:23.256Z,5.17
2022-11-13T02:03:10.706Z,4.92
2022-11-13T02:05:57.757Z,5.38
2022-11-13T02:08:44.678Z,4.47
2022-11-13T02:11:31.154Z,5.16
2022-11-13T02:14:21.076Z,5.42
2022-11-13T02:17:10.136Z,5.08
2022-11-13T02:19:58.630Z,5.25
2022-11-13T02:22:51.212Z,5.47
2022-11-13T02:25:40.780Z,5.90
2022-11-13T02:28:27.495Z,5.62
2022-11-13T02:31:14.755Z,5.49
2022-11-13T02:34:02.549Z,5.62
2022-11-13T02:36:49.114Z,5.24
2022-11-13T02:39:35.962Z,5.20
2022-11-13T02:42:24.343Z,4.67
2022-11-13T02:45:12.015Z,4.58
2022-11-13T02:48:00.454Z,4.86
2022-11-13T02:50:46.994Z,4.62
2022-11-13T02:53:33.899Z,4.60
2022-11-13T02:56:20.272Z,4.46
2022-11-13T02:59:08.507Z,4.15
2022-11-13T03:01:55.356Z,4.15
2022-11-13T03:05:40.550Z,-143.11
2022-11-13T03:08:27.621Z,4.15
2022-11-13T03:11:14.591Z,4.15
2022-11-13T03:14:01.356Z,-143.11
2022-11-13T03:17:23.473Z,-143.11
2022-11-13T03:20:10.656Z,3.98
2022-11-13T03:22:57.215Z,4.26
2022-11-13T03:25:43.962Z,3.89
2022-11-13T03:28:30.833Z,4.19
2022-11-13T03:31:17.389Z,3.61
2022-11-13T03:34:05.465Z,3.61
2022-11-13T03:36:52.231Z,3.61
2022-11-13T03:39:40.689Z,-143.11
2022-11-13T03:42:27.593Z,-143.11
2022-11-13T03:45:14.479Z,3.61
2022-11-13T03:48:01.317Z,3.67
2022-11-13T03:50:50.714Z,4.72
2022-11-13T03:53:37.650Z,4.68
2022-11-13T03:56:24.221Z,4.75
2022-11-13T03:59:10.939Z,4.78
2022-11-13T04:01:57.416Z,4.78
2022-11-13T04:04:44.724Z,4.02
2022-11-13T04:07:32.778Z,4.45
2022-11-13T04:10:19.301Z,4.12
2022-11-13T04:13:06.142Z,4.40
2022-11-13T04:15:52.826Z,4.51
2022-11-13T04:18:39.669Z,4.33
2022-11-13T04:21:27.728Z,4.30
2022-11-13T04:24:15.923Z,4.14
2022-11-13T04:27:02.470Z,4.46
2022-11-13T04:29:49.098Z,3.75
2022-11-13T04:32:35.880Z,3.65
2022-11-13T04:35:22.651Z,3.61
2022-11-13T04:38:09.358Z,3.39
2022-11-13T04:41:11.353Z,3.38
2022-11-13T04:43:58.107Z,-143.11
2022-11-13T04:46:44.711Z,-143.11
2022-11-13T04:49:31.466Z,-143.11
2022-11-13T04:52:18.314Z,-143.11
2022-11-13T04:55:05.404Z,-143.11
2022-11-13T04:57:55.729Z,-143.11
2022-11-13T05:00:42.290Z,-143.11
2022-11-13T05:03:28.984Z,-143.11
2022-11-13T05:06:15.697Z,-143.11
2022-11-13T05:09:02.439Z,-143.11
2022-11-13T05:11:49.179Z,-143.11
2022-11-13T05:14:37.958Z,-143.11
2022-11-13T05:17:24.284Z,-143.11
2022-11-13T05:20:11.822Z,-143.11
2022-11-13T05:22:58.285Z,-143.11
2022-11-13T05:25:45.002Z,-143.11
2022-11-13T05:28:31.961Z,-143.11
2022-11-13T05:31:19.962Z,-143.11
2022-11-13T05:34:06.956Z,-143.11
2022-11-13T05:36:53.671Z,-143.11
2022-11-13T05:39:40.253Z,-143.11
2022-11-13T05:42:26.858Z,3.21
2022-11-13T05:45:13.760Z,3.43
2022-11-13T05:48:01.783Z,3.44
2022-11-13T05:51:47.107Z,-143.11
2022-11-13T05:55:32.455Z,-143.11
2022-11-13T05:59:17.712Z,-143.11
2022-11-13T06:03:04.361Z,-143.11
2022-11-13T06:06:49.585Z,-143.11
2022-11-13T06:10:34.755Z,-143.11
2022-11-13T06:14:20.213Z,-143.11
2022-11-13T06:18:06.641Z,-143.11
2022-11-13T06:21:51.922Z,-143.11
2022-11-13T06:25:37.206Z,-143.11
2022-11-13T06:29:22.567Z,-143.11
2022-11-13T06:33:09.219Z,-143.11
2022-11-13T06:36:54.481Z,-143.11
2022-11-13T06:40:39.820Z,-143.11
2022-11-13T06:44:24.995Z,-143.11
2022-11-13T06:48:11.686Z,-143.11
2022-11-13T06:51:56.821Z,-143.11
2022-11-13T06:55:43.886Z,-143.11
2022-11-13T06:59:28.900Z,-143.11
2022-11-13T07:03:18.022Z,-143.11
2022-11-13T07:07:03.118Z,-143.11
2022-11-13T07:10:53.754Z,-143.11
2022-11-13T07:13:40.340Z,2.89
2022-11-13T07:16:38.870Z,2.97
2022-11-13T07:19:32.740Z,3.27
2022-11-13T07:22:19.467Z,2.88
2022-11-13T07:25:06.331Z,2.84
2022-11-13T07:28:51.277Z,-143.11
2022-11-13T07:32:36.591Z,-143.11
2022-11-13T07:36:23.026Z,-143.11
2022-11-13T07:40:08.663Z,-143.11
2022-11-13T07:43:53.948Z,-143.11
2022-11-13T07:47:39.286Z,-143.11
2022-11-13T07:51:25.811Z,-143.11
2022-11-13T07:55:10.765Z,-143.11
2022-11-13T07:58:55.916Z,-143.11
2022-11-13T08:02:41.404Z,-143.11
2022-11-13T08:06:28.421Z,-143.11
2022-11-13T08:10:13.808Z,-143.11
2022-11-13T08:13:58.940Z,-143.11
2022-11-13T08:17:44.254Z,-143.11
2022-11-13T08:21:31.031Z,-143.11
2022-11-13T08:25:16.642Z,-143.11
2022-11-13T08:29:02.476Z,-143.11
2022-11-13T08:32:48.535Z,-143.11
2022-11-13T08:36:35.253Z,-143.11
2022-11-13T08:40:20.270Z,-143.11
2022-11-13T08:44:05.900Z,-143.11
2022-11-13T08:47:50.878Z,-143.11
2022-11-13T08:51:37.439Z,-143.11
2022-11-13T08:55:22.777Z,-143.11
2022-11-13T08:59:08.169Z,-143.11
2022-11-13T09:02:55.084Z,-143.11
2022-11-13T09:06:41.450Z,-143.11
2022-11-13T09:10:27.109Z,-143.11
2022-11-13T09:14:12.561Z,-143.11
2022-11-13T09:17:57.890Z,-143.11
2022-11-13T09:21:44.723Z,-143.11
2022-11-13T09:25:36.870Z,-143.11
2022-11-13T09:29:23.382Z,-143.11
2022-11-13T09:33:08.484Z,-143.11
2022-11-13T09:36:55.117Z,-143.11
2022-11-13T09:40:42.795Z,-143.11
2022-11-13T09:44:31.511Z,-143.11
2022-11-13T09:48:21.672Z,-143.11
2022-11-13T09:52:12.625Z,-143.11
2022-11-13T09:56:02.793Z,-143.11
2022-11-13T09:59:50.244Z,-143.11
2022-11-13T10:03:59.750Z,-143.11
2022-11-13T10:07:47.838Z,-143.11
2022-11-13T10:11:40.488Z,-143.11
2022-11-13T10:15:26.357Z,-143.11
2022-11-13T10:19:15.825Z,-143.11
2022-11-13T10:23:07.902Z,-143.11
2022-11-13T10:26:54.935Z,-143.11
2022-11-13T10:30:41.254Z,-143.11
2022-11-13T10:34:26.652Z,-143.11
2022-11-13T10:38:24.447Z,-143.11
2022-11-13T10:41:53.407Z,-143.11
2022-11-13T10:45:01.644Z,-143.11
2022-11-13T10:48:46.701Z,-143.11
2022-11-13T10:51:36.951Z,-143.11
2022-11-13T10:55:27.271Z,-143.11
2022-11-13T10:59:13.518Z,-143.11
2022-11-13T11:02:58.774Z,-143.11
2022-11-13T11:11:14.314Z,-143.11
2022-11-13T11:15:07.390Z,-143.11
2022-11-13T11:18:54.507Z,-143.11
2022-11-13T11:22:41.694Z,-143.11
2022-11-13T11:26:31.199Z,-143.11
2022-11-13T11:30:19.930Z,-143.11
2022-11-13T11:34:14.048Z,-143.11
2022-11-13T11:38:02.151Z,-143.11
2022-11-13T11:41:51.772Z,-143.11
2022-11-13T11:45:39.808Z,-143.11
2022-11-13T11:49:26.737Z,-143.11
2022-11-13T11:53:15.009Z,-143.11
2022-11-13T11:57:07.629Z,-143.11
2022-11-13T12:00:57.513Z,-143.11
2022-11-13T12:04:49.150Z,-143.11
2022-11-13T12:08:37.369Z,-143.11
2022-11-13T12:12:31.541Z,-143.11
2022-11-13T12:16:24.820Z,-143.11
2022-11-13T12:20:19.161Z,-143.11
2022-11-13T12:24:19.646Z,-143.11
2022-11-13T12:28:12.009Z,-143.11
2022-11-13T12:32:05.205Z,-143.11
2022-11-13T12:35:52.173Z,-143.11
2022-11-13T12:38:42.861Z,-143.11
2022-11-13T12:41:34.303Z,-143.11
2022-11-13T12:44:27.352Z,-143.11
2022-11-13T12:47:14.516Z,-143.11
2022-11-13T12:50:02.931Z,-143.11
2022-11-13T12:52:58.803Z,-143.11
2022-11-13T12:55:56.687Z,-143.11
2022-11-13T12:59:28.356Z,-143.11
2022-11-13T13:03:11.477Z,-143.11
2022-11-13T13:06:10.393Z,-143.11
2022-11-13T13:09:28.504Z,-143.11
2022-11-13T13:12:18.635Z,-143.11
2022-11-13T13:15:11.285Z,-143.11
2022-11-13T13:18:05.511Z,-143.11
2022-11-13T13:21:03.031Z,-143.11
2022-11-13T13:23:53.196Z,-143.11
2022-11-13T13:26:45.638Z,-143.11
2022-11-13T13:29:34.360Z,-143.11
2022-11-13T13:32:24.141Z,-143.11
2022-11-13T13:35:14.691Z,-143.11
2022-11-13T13:38:06.854Z,-143.11
2022-11-13T13:41:04.305Z,-143.11
2022-11-13T13:43:55.762Z,-143.11
2022-11-13T13:46:42.876Z,-143.11
2022-11-13T13:49:30.221Z,-143.11
2022-11-13T13:52:17.098Z,-143.11
2022-11-13T13:55:07.483Z,-143.11
2022-11-13T13:57:55.114Z,-143.11
2022-11-13T14:01:05.049Z,-143.11
2022-11-13T14:03:48.340Z,-143.11
2022-11-13T14:06:35.322Z,-143.11
2022-11-13T14:09:23.085Z,-143.11
2022-11-13T14:12:20.134Z,-143.11
2022-11-13T14:15:20.170Z,-143.11
2022-11-13T14:18:08.653Z,-143.11
2022-11-13T14:20:56.012Z,-143.11
2022-11-13T14:23:44.251Z,-143.11
2022-11-13T14:26:31.479Z,-143.11
2022-11-13T14:29:23.911Z,-143.11
2022-11-13T14:32:15.827Z,-143.11
2022-11-13T14:35:03.946Z,-143.11
2022-11-13T14:37:51.210Z,-143.11
2022-11-13T14:40:38.326Z,-143.11
2022-11-13T14:43:27.217Z,-143.11
2022-11-13T14:46:26.362Z,-143.11
2022-11-13T14:49:15.227Z,-143.11
2022-11-13T14:52:02.241Z,-143.11
2022-11-13T14:55:13.638Z,-143.11
2022-11-13T14:57:55.526Z,-143.11
2022-11-13T15:00:42.030Z,-143.11
2022-11-13T15:03:30.272Z,-143.11
2022-11-13T15:06:18.502Z,-143.11
2022-11-13T15:09:06.470Z,-143.11
2022-11-13T15:11:53.121Z,-143.11
2022-11-13T15:14:40.879Z,-143.11
2022-11-13T15:17:27.268Z,-143.11
2022-11-13T15:20:16.470Z,-143.11
2022-11-13T15:23:03.332Z,-143.11
2022-11-13T15:25:49.689Z,-143.11
2022-11-13T15:28:36.485Z,-143.11
2022-11-13T15:31:25.067Z,-143.11
2022-11-13T15:34:11.872Z,-143.11
2022-11-13T15:36:59.800Z,-143.11
2022-11-13T15:39:46.993Z,-143.11
2022-11-13T15:42:35.374Z,-143.11
2022-11-13T15:45:21.737Z,-143.11
2022-11-13T15:48:10.329Z,-143.11
2022-11-13T15:50:57.262Z,-143.11
2022-11-13T15:53:45.622Z,-143.11
2022-11-13T15:56:32.191Z,-143.11
2022-11-13T15:59:18.846Z,-143.11
2022-11-13T16:02:06.327Z,-143.11
2022-11-13T16:04:57.359Z,-143.11
2022-11-13T16:07:44.175Z,-143.11
2022-11-13T16:10:31.883Z,-143.11
2022-11-13T16:13:18.677Z,-143.11
2022-11-13T16:16:05.670Z,-143.11
2022-11-13T16:18:57.289Z,-143.11
2022-11-13T16:21:46.309Z,-143.11
2022-11-13T16:24:32.992Z,-143.11
2022-11-13T16:27:25.750Z,-143.11
2022-11-13T16:30:16.155Z,-143.11
2022-11-13T16:33:05.746Z,-143.11
2022-11-13T16:35:52.227Z,-143.11
2022-11-13T16:38:38.882Z,-143.11
2022-11-13T16:41:25.718Z,-143.11
2022-11-13T16:44:13.811Z,-143.11
2022-11-13T16:47:00.416Z,-143.11
2022-11-13T16:49:47.481Z,-143.11
2022-11-13T16:52:34.178Z,-143.11
2022-11-13T16:55:20.586Z,-143.11
2022-11-13T16:58:07.546Z,-143.11
2022-11-13T17:01:00.128Z,-143.11
2022-11-13T17:03:47.029Z,-143.11
2022-11-13T17:06:34.531Z,-143.11
2022-11-13T17:09:21.332Z,-143.11
2022-11-13T17:12:08.399Z,-143.11
2022-11-13T17:14:55.197Z,-143.11
2022-11-13T17:17:43.344Z,-143.11
2022-11-13T17:20:30.189Z,-143.11
2022-11-13T17:23:17.372Z,-143.11
2022-11-13T17:26:04.391Z,-143.11
2022-11-13T17:28:51.316Z,-143.11
2022-11-13T17:31:38.003Z,-143.11
2022-11-13T17:34:26.080Z,-143.11
2022-11-13T17:37:12.889Z,-143.11
2022-11-13T17:39:59.558Z,-143.11
2022-11-13T17:42:47.915Z,-143.11
2022-11-13T17:45:36.900Z,-143.11
2022-11-13T17:48:23.420Z,-143.11
2022-11-13T17:51:12.789Z,-143.11
2022-11-13T17:53:59.467Z,-143.11
2022-11-13T17:56:47.184Z,-143.11
2022-11-13T17:59:33.752Z,-143.11
2022-11-13T18:02:20.626Z,-143.11
2022-11-13T18:05:09.240Z,-143.11
2022-11-13T18:07:57.224Z,-143.11
2022-11-13T18:10:43.860Z,-143.11
2022-11-13T18:13:31.574Z,-143.11
2022-11-13T18:16:19.915Z,-143.11
2022-11-13T18:19:09.204Z,-143.11
2022-11-13T18:21:55.715Z,-143.11
2022-11-13T18:24:43.977Z,-143.11
2022-11-13T18:27:31.009Z,-143.11
2022-11-13T18:30:17.926Z,-143.11
2022-11-13T18:33:04.745Z,-143.11
2022-11-13T18:35:55.801Z,-143.11
2022-11-13T18:38:43.727Z,-143.11
2022-11-13T18:41:32.481Z,-143.11
2022-11-13T18:44:20.030Z,-143.11
2022-11-13T18:47:16.247Z,-143.11
2022-11-13T18:50:02.820Z,-143.11
2022-11-13T18:52:49.449Z,-143.11
2022-11-13T18:55:36.293Z,-143.11
2022-11-13T18:58:24.542Z,-143.11
2022-11-13T19:01:19.061Z,-143.11
2022-11-13T19:04:25.688Z,-143.11
2022-11-13T19:07:12.796Z,-143.11
2022-11-13T19:10:01.967Z,-143.11
2022-11-13T19:12:48.952Z,-143.11
2022-11-13T19:15:38.434Z,-143.11
2022-11-13T19:18:25.436Z,-143.11
2022-11-13T19:21:13.825Z,-143.11
2022-11-13T19:24:01.173Z,-143.11
2022-11-13T19:26:47.858Z,-143.11
2022-11-13T19:29:34.754Z,-143.11
2022-11-13T19:32:28.429Z,-143.11
2022-11-13T19:35:15.174Z,-143.11
2022-11-13T19:38:02.399Z,-143.11
2022-11-13T19:40:52.457Z,-143.11
2022-11-13T19:43:44.892Z,-143.11
2022-11-13T19:46:36.343Z,-143.11
2022-11-13T19:49:24.797Z,-143.11
2022-11-13T19:52:12.529Z,-143.11
2022-11-13T19:54:59.197Z,-143.11
2022-11-13T19:57:46.454Z,-143.11
2022-11-13T20:00:33.346Z,-143.11
2022-11-13T20:03:21.169Z,-143.11
2022-11-13T20:06:10.895Z,-143.11
2022-11-13T20:08:59.171Z,-143.11
2022-11-13T20:11:45.784Z,-143.11
2022-11-13T20:14:37.952Z,-143.11
2022-11-13T20:17:25.849Z,-143.11
2022-11-13T20:20:12.921Z,-143.11
2022-11-13T20:23:01.052Z,-143.11
2022-11-13T20:25:52.285Z,-143.11
2022-11-13T20:28:38.811Z,-143.11
2022-11-13T20:31:25.789Z,-143.11
2022-11-13T20:34:12.495Z,-143.11
2022-11-13T20:36:59.508Z,-143.11
2022-11-13T20:39:47.926Z,-143.11
2022-11-13T20:42:34.544Z,-143.11
2022-11-13T20:45:21.405Z,-143.11
2022-11-13T20:48:08.096Z,-143.11
2022-11-13T20:50:54.662Z,-143.11
2022-11-13T20:53:41.964Z,-143.11
2022-11-13T20:56:30.145Z,-143.11
2022-11-13T20:59:16.704Z,-143.11
2022-11-13T21:02:03.769Z,-143.11
2022-11-13T21:04:50.495Z,-143.11
2022-11-13T21:07:37.312Z,-143.11
2022-11-13T21:10:24.211Z,-143.11
2022-11-13T21:13:12.347Z,-143.11
2022-11-13T21:15:58.956Z,-143.11
2022-11-13T21:18:45.562Z,-143.11
2022-11-13T21:21:32.288Z,-143.11
2022-11-13T21:24:19.214Z,-143.11
2022-11-13T21:27:06.275Z,-143.11
2022-11-13T21:29:54.153Z,-143.11
2022-11-13T21:33:07.437Z,-143.11
2022-11-13T21:35:54.484Z,-143.11
2022-11-13T21:38:42.572Z,-143.11
2022-11-13T21:41:31.569Z,-143.11
2022-11-13T21:44:18.408Z,-143.11
2022-11-13T21:47:06.566Z,-143.11
2022-11-13T21:49:53.216Z,-143.11
2022-11-13T21:52:39.726Z,-143.11
2022-11-13T21:55:26.775Z,-143.11
2022-11-13T21:58:14.806Z,-143.11
2022-11-13T22:02:39.534Z,4.30
2022-11-13T22:05:26.334Z,4.31
2022-11-13T22:08:13.003Z,4.28
2022-11-13T22:10:59.733Z,4.18
2022-11-13T22:13:46.766Z,3.98
2022-11-13T22:16:51.081Z,4.00
2022-11-13T22:19:39.129Z,4.03
2022-11-13T22:22:25.737Z,4.72
2022-11-13T22:25:12.598Z,3.91
2022-11-13T22:28:00.394Z,3.91
2022-11-13T22:30:47.349Z,4.07
2022-11-13T22:33:34.991Z,3.62
2022-11-13T22:36:24.244Z,3.58
2022-11-13T22:39:11.013Z,3.95
2022-11-13T22:41:57.999Z,4.02
2022-11-13T22:44:55.570Z,4.04
2022-11-13T22:47:43.397Z,4.30
2022-11-13T22:50:29.902Z,3.93
2022-11-13T22:53:18.045Z,4.23
2022-11-13T22:56:08.464Z,4.66
2022-11-13T22:58:55.763Z,4.14
2022-11-13T23:01:43.557Z,4.22
2022-11-13T23:04:30.051Z,4.51
2022-11-13T23:07:16.967Z,4.93
2022-11-13T23:10:05.415Z,4.66
2022-11-13T23:12:51.949Z,4.89
2022-11-13T23:15:38.513Z,5.74
2022-11-13T23:18:25.308Z,5.80
2022-11-13T23:21:13.161Z,4.66
2022-11-13T23:24:00.035Z,4.77
2022-11-13T23:26:48.082Z,4.45
2022-11-13T23:29:34.865Z,5.10
2022-11-13T23:32:21.628Z,5.19
2022-11-13T23:35:08.455Z,4.58
2022-11-13T23:37:55.171Z,4.66
2022-11-13T23:40:42.030Z,4.16
2022-11-13T23:44:01.688Z,3.75
2022-11-13T23:46:37.562Z,4.13
2022-11-13T23:49:23.961Z,3.89
2022-11-13T23:52:10.728Z,3.89
2022-11-13T23:54:57.545Z,4.18
2022-11-13T23:57:44.137Z,4.18
